Time;durP1;ratioP1;P1;durP2;ratioP2;P2;SDS_P1;SDS_P2;PMS_P1;PMS_P2;Temp;Humidity;BMP_temperature;BMP_pressure;BME280_temperature;BME280_humidity;BME280_pressure;Samples;Min_cycle;Max_cycle;Signal;HPM_P1;HPM_P2
2021/11/16 00:01:36;;;;;;;;;19.00;13.50;;;;;;;;5003677;28;45407;-72
2021/11/16 00:04:02;;;;;;;;;18.50;11.50;;;;;;;;5008499;28;45557;-72
2021/11/16 00:06:27;;;;;;;;;16.25;12.25;;;;;;;;5013893;28;48089;-72
2021/11/16 00:08:52;;;;;;;;;16.33;12.33;;;;;;;;5012541;28;45380;-72
2021/11/16 00:11:17;;;;;;;;;15.33;11.33;;;;;;;;5007829;28;45307;-72
2021/11/16 00:13:43;;;;;;;;;18.50;14.25;;;;;;;;5010670;28;45419;-72
2021/11/16 00:16:08;;;;;;;;;19.50;11.00;;;;;;;;5006969;28;46540;-72
2021/11/16 00:18:35;;;;;;;;;16.33;11.00;;;;;;;;5000127;28;45385;-72
2021/11/16 00:21:02;;;;;;;;;21.00;17.75;;;;;;;;5002365;28;45458;-72
2021/11/16 00:23:34;;;;;;;;;17.75;13.50;;;;;;;;5012100;28;45339;-72
2021/11/16 00:26:01;;;;;;;;;20.25;15.00;;;;;;;;5011445;28;47575;-72
2021/11/16 00:28:26;;;;;;;;;16.50;12.25;;;;;;;;5009345;28;45775;-72
2021/11/16 00:30:53;;;;;;;;;22.00;15.00;;;;;;;;4993055;28;45610;-72
2021/11/16 00:33:20;;;;;;;;;24.50;14.75;;;;;;;;5012010;28;47736;-72
2021/11/16 00:35:45;;;;;;;;;17.00;13.00;;;;;;;;4998513;28;45386;-72
2021/11/16 00:38:12;;;;;;;;;19.75;15.50;;;;;;;;5006652;28;45325;-72
2021/11/16 00:40:38;;;;;;;;;17.75;17.00;;;;;;;;5002586;28;45488;-72
2021/11/16 00:43:07;;;;;;;;;23.75;16.00;;;;;;;;5001764;28;45595;-72
2021/11/16 00:45:34;;;;;;;;;23.25;13.00;;;;;;;;4999728;28;45583;-72
2021/11/16 00:47:59;;;;;;;;;15.25;12.75;;;;;;;;5001246;28;46024;-72
2021/11/16 00:50:24;;;;;;;;;27.33;20.33;;;;;;;;4998196;28;45325;-72
2021/11/16 00:52:50;;;;;;;;;23.00;15.33;;;;;;;;5008361;28;45494;-72
2021/11/16 00:55:15;;;;;;;;;20.50;15.75;;;;;;;;5008816;28;45517;-72
2021/11/16 00:57:41;;;;;;;;;22.25;13.00;;;;;;;;5007742;28;45490;-72
2021/11/16 01:00:09;;;;;;;;;22.75;16.75;;;;;;;;4998027;28;45485;-72
2021/11/16 01:02:35;;;;;;;;;25.50;17.75;;;;;;;;5012011;28;45283;-72
2021/11/16 01:05:00;;;;;;;;;13.75;11.25;;;;;;;;5009724;28;45488;-72
2021/11/16 01:07:25;;;;;;;;;18.50;13.25;;;;;;;;5005118;28;45608;-72
2021/11/16 01:09:50;;;;;;;;;21.67;13.00;;;;;;;;5003291;28;45549;-72
2021/11/16 01:12:16;;;;;;;;;16.33;12.67;;;;;;;;5003048;28;45603;-72
2021/11/16 01:14:43;;;;;;;;;22.00;13.50;;;;;;;;5014540;28;46572;-72
2021/11/16 01:17:09;;;;;;;;;22.75;15.50;;;;;;;;5005476;28;45329;-72
2021/11/16 01:19:34;;;;;;;;;19.50;17.25;;;;;;;;5006094;28;45392;-72
2021/11/16 01:22:00;;;;;;;;;25.75;15.75;;;;;;;;5007254;28;45527;-72
2021/11/16 01:24:26;;;;;;;;;14.00;13.00;;;;;;;;5001606;28;46900;-71
2021/11/16 01:26:51;;;;;;;;;20.00;13.75;;;;;;;;5015988;28;45586;-72
2021/11/16 01:29:18;;;;;;;;;15.67;11.33;;;;;;;;5011378;28;45308;-72
2021/11/16 01:31:44;;;;;;;;;17.25;13.75;;;;;;;;5001257;28;45315;-72
2021/11/16 01:34:10;;;;;;;;;16.75;12.25;;;;;;;;5010190;28;46947;-72
2021/11/16 01:36:36;;;;;;;;;18.00;16.25;;;;;;;;5013658;28;45393;-72
2021/11/16 01:39:02;;;;;;;;;17.00;12.33;;;;;;;;5000298;28;45389;-72
2021/11/16 01:41:29;;;;;;;;;20.50;11.75;;;;;;;;4999569;28;45264;-72
2021/11/16 01:43:54;;;;;;;;;24.75;13.50;;;;;;;;5005678;28;46364;-72
2021/11/16 01:46:19;;;;;;;;;22.00;12.00;;;;;;;;5010233;28;45601;-72
2021/11/16 01:48:48;;;;;;;;;15.00;15.00;;;;;;;;5011946;28;45423;-73
2021/11/16 01:51:15;;;;;;;;;22.25;12.50;;;;;;;;5012364;28;45583;-71
2021/11/16 01:53:41;;;;;;;;;24.25;13.50;;;;;;;;5006800;28;46462;-72
2021/11/16 01:56:06;;;;;;;;;17.00;8.25;;;;;;;;5000903;28;45495;-72
2021/11/16 01:58:31;;;;;;;;;24.00;18.50;;;;;;;;5005806;28;45363;-72
2021/11/16 02:00:56;;;;;;;;;19.67;16.67;;;;;;;;5001505;28;45935;-72
2021/11/16 02:03:23;;;;;;;;;22.00;16.00;;;;;;;;4983805;28;47444;-72
2021/11/16 02:05:53;;;;;;;;;16.75;15.75;;;;;;;;5012659;28;45572;-72
2021/11/16 02:08:19;;;;;;;;;18.00;14.50;;;;;;;;5009735;28;45403;-73
2021/11/16 02:10:45;;;;;;;;;23.25;13.00;;;;;;;;5003951;28;45598;-72
2021/11/16 02:13:11;;;;;;;;;22.50;15.25;;;;;;;;5009906;28;46546;-72
2021/11/16 02:15:37;;;;;;;;;18.25;14.00;;;;;;;;5009625;28;45292;-72
2021/11/16 02:18:07;;;;;;;;;19.25;12.50;;;;;;;;5010366;28;45431;-72
2021/11/16 02:20:33;;;;;;;;;17.25;15.75;;;;;;;;5000675;28;45450;-72
2021/11/16 02:22:58;;;;;;;;;18.25;12.75;;;;;;;;5011282;28;46665;-72
2021/11/16 02:25:23;;;;;;;;;17.50;12.25;;;;;;;;5008110;28;45717;-72
2021/11/16 02:27:49;;;;;;;;;18.33;14.67;;;;;;;;5002499;28;45395;-72
2021/11/16 02:30:14;;;;;;;;;22.75;12.00;;;;;;;;5003914;28;45675;-72
2021/11/16 02:32:42;;;;;;;;;14.25;12.50;;;;;;;;5014528;28;45398;-72
2021/11/16 02:35:07;;;;;;;;;18.75;12.00;;;;;;;;5001694;28;45859;-72
2021/11/16 02:37:32;;;;;;;;;19.25;13.00;;;;;;;;5002058;28;45415;-73
2021/11/16 02:39:58;;;;;;;;;18.00;13.00;;;;;;;;5001789;28;45755;-72
2021/11/16 02:42:25;;;;;;;;;21.50;13.50;;;;;;;;5011006;28;45795;-72
2021/11/16 02:44:50;;;;;;;;;18.50;12.50;;;;;;;;5010471;28;45889;-72
2021/11/16 02:47:15;;;;;;;;;18.00;12.00;;;;;;;;5011352;28;45398;-72
2021/11/16 02:49:42;;;;;;;;;17.33;11.00;;;;;;;;5010882;28;45909;-72
2021/11/16 02:52:14;;;;;;;;;21.75;15.25;;;;;;;;5010410;28;46505;-72
2021/11/16 02:54:39;;;;;;;;;19.25;12.00;;;;;;;;5011085;28;45446;-72
2021/11/16 02:57:05;;;;;;;;;20.75;15.50;;;;;;;;4999880;28;45379;-72
2021/11/16 02:59:31;;;;;;;;;17.00;13.50;;;;;;;;5011221;28;45581;-72
2021/11/16 03:01:56;;;;;;;;;16.67;13.00;;;;;;;;5000579;28;45722;-72
2021/11/16 03:04:22;;;;;;;;;21.00;15.25;;;;;;;;5002002;28;45457;-72
2021/11/16 03:06:47;;;;;;;;;16.50;13.00;;;;;;;;5012380;28;45406;-72
2021/11/16 03:09:12;;;;;;;;;23.67;13.00;;;;;;;;5009784;28;45463;-72
2021/11/16 03:11:37;;;;;;;;;24.00;13.67;;;;;;;;4998489;28;45439;-72
2021/11/16 03:14:03;;;;;;;;;14.75;12.00;;;;;;;;5009454;28;45491;-72
2021/11/16 03:16:28;;;;;;;;;18.75;16.50;;;;;;;;5006610;28;45405;-72
2021/11/16 03:18:54;;;;;;;;;20.33;15.33;;;;;;;;5002725;28;45623;-72
2021/11/16 03:21:21;;;;;;;;;19.25;12.50;;;;;;;;5010353;28;47223;-72
2021/11/16 03:23:49;;;;;;;;;13.50;10.00;;;;;;;;4996991;28;45576;-71
2021/11/16 03:26:15;;;;;;;;;9.75;9.25;;;;;;;;4996412;28;45396;-72
2021/11/16 03:28:44;;;;;;;;;16.50;13.00;;;;;;;;5011864;28;45601;-72
2021/11/16 03:31:20;;;;;;;;;15.75;11.50;;;;;;;;5005439;28;45714;-72
2021/11/16 03:33:45;;;;;;;;;13.25;11.75;;;;;;;;5002215;28;45794;-72
2021/11/16 03:36:11;;;;;;;;;19.50;11.75;;;;;;;;5005728;28;45308;-72
2021/11/16 03:38:37;;;;;;;;;19.00;13.00;;;;;;;;5004120;28;45398;-72
2021/11/16 03:41:03;;;;;;;;;13.75;12.00;;;;;;;;5006492;28;45570;-72
2021/11/16 03:43:28;;;;;;;;;19.75;12.00;;;;;;;;5012301;28;45439;-72
2021/11/16 03:45:55;;;;;;;;;17.00;12.25;;;;;;;;5007519;28;45376;-72
2021/11/16 03:48:20;;;;;;;;;19.00;11.25;;;;;;;;4999989;28;45454;-72
2021/11/16 03:50:46;;;;;;;;;17.00;12.00;;;;;;;;4999368;28;45565;-72
2021/11/16 03:53:11;;;;;;;;;17.25;14.00;;;;;;;;5004279;28;45624;-72
2021/11/16 03:55:40;;;;;;;;;10.50;10.00;;;;;;;;5001217;28;45853;-72
2021/11/16 03:58:06;;;;;;;;;18.00;13.00;;;;;;;;5004716;28;45458;-72
2021/11/16 04:00:37;;;;;;;;;18.25;13.25;;;;;;;;5003422;28;46844;-72
2021/11/16 04:03:03;;;;;;;;;13.25;12.25;;;;;;;;4998189;28;45414;-72
2021/11/16 04:05:29;;;;;;;;;15.75;14.25;;;;;;;;5010183;28;45660;-72
2021/11/16 04:07:54;;;;;;;;;17.00;12.75;;;;;;;;5007179;28;45530;-72
2021/11/16 04:10:20;;;;;;;;;17.50;13.00;;;;;;;;5003736;28;46226;-72
2021/11/16 04:12:46;;;;;;;;;21.25;16.75;;;;;;;;5002455;28;45371;-72
2021/11/16 04:15:13;;;;;;;;;16.25;13.50;;;;;;;;5002237;28;45676;-72
2021/11/16 04:17:41;;;;;;;;;23.25;14.75;;;;;;;;4998378;28;45264;-72
2021/11/16 04:20:10;;;;;;;;;14.00;11.25;;;;;;;;4997703;28;45431;-72
2021/11/16 04:22:36;;;;;;;;;12.75;10.50;;;;;;;;4982047;28;45795;-72
2021/11/16 04:25:02;;;;;;;;;16.25;12.50;;;;;;;;5000817;28;45719;-72
2021/11/16 04:27:27;;;;;;;;;15.00;13.50;;;;;;;;5003886;28;45502;-72
2021/11/16 04:29:53;;;;;;;;;19.25;13.00;;;;;;;;4997471;28;46144;-72
2021/11/16 04:32:19;;;;;;;;;12.25;10.25;;;;;;;;5005947;28;46007;-72
2021/11/16 04:34:44;;;;;;;;;13.00;10.75;;;;;;;;5004752;28;45449;-71
2021/11/16 04:37:09;;;;;;;;;15.33;12.00;;;;;;;;5004086;28;45514;-71
2021/11/16 04:39:34;;;;;;;;;11.00;8.00;;;;;;;;5007885;28;45481;-72
2021/11/16 04:41:59;;;;;;;;;13.33;12.33;;;;;;;;5011533;28;45651;-72
2021/11/16 04:44:25;;;;;;;;;16.67;14.33;;;;;;;;5001813;28;45749;-72
2021/11/16 04:46:50;;;;;;;;;12.75;10.50;;;;;;;;5001796;28;45605;-72
2021/11/16 05:04:39;;;;;;;;;17.75;15.50;;;;;;;;5005453;28;45502;-72
2021/11/16 05:07:15;;;;;;;;;16.50;11.00;;;;;;;;5007340;28;45693;-72
2021/11/16 05:09:40;;;;;;;;;18.00;13.50;;;;;;;;5014435;28;45409;-73
2021/11/16 05:12:06;;;;;;;;;19.00;12.67;;;;;;;;5015952;28;45530;-72
2021/11/16 05:14:31;;;;;;;;;16.50;10.25;;;;;;;;5000151;28;45493;-72
2021/11/16 05:16:56;;;;;;;;;18.33;13.00;;;;;;;;5002696;28;45416;-72
2021/11/16 05:19:22;;;;;;;;;16.00;13.00;;;;;;;;5004565;28;47205;-72
2021/11/16 05:21:47;;;;;;;;;22.67;15.33;;;;;;;;5004204;28;45605;-71
2021/11/16 05:24:13;;;;;;;;;22.00;12.33;;;;;;;;5003579;28;45390;-72
2021/11/16 05:26:38;;;;;;;;;19.50;15.00;;;;;;;;5001044;28;45576;-72
2021/11/16 05:29:03;;;;;;;;;15.00;15.00;;;;;;;;4998429;28;46528;-72
2021/11/16 05:31:28;;;;;;;;;24.33;14.67;;;;;;;;5011372;28;45340;-72
2021/11/16 05:33:54;;;;;;;;;16.33;15.33;;;;;;;;5011147;28;45533;-72
2021/11/16 05:36:20;;;;;;;;;20.25;14.50;;;;;;;;5006664;28;45592;-72
2021/11/16 05:38:49;;;;;;;;;19.75;14.75;;;;;;;;5013309;28;46318;-72
2021/11/16 05:41:14;;;;;;;;;17.75;12.00;;;;;;;;5002870;28;45882;-72
2021/11/16 05:43:42;;;;;;;;;21.00;14.25;;;;;;;;5002082;28;45582;-72
2021/11/16 05:46:08;;;;;;;;;22.25;16.25;;;;;;;;5002995;28;45746;-72
2021/11/16 05:48:38;;;;;;;;;23.75;15.75;;;;;;;;5002636;28;46573;-72
2021/11/16 05:51:03;;;;;;;;;21.00;16.75;;;;;;;;5003883;28;45425;-72
2021/11/16 05:53:29;;;;;;;;;22.75;15.00;;;;;;;;5000164;28;45474;-72
2021/11/16 05:55:54;;;;;;;;;20.75;13.75;;;;;;;;5000969;28;45626;-72
2021/11/16 05:58:20;;;;;;;;;24.25;15.75;;;;;;;;5001285;28;46092;-72
2021/11/16 06:00:45;;;;;;;;;16.00;14.00;;;;;;;;5003976;28;45458;-72
2021/11/16 06:03:11;;;;;;;;;23.50;16.50;;;;;;;;5001853;28;46012;-72
2021/11/16 06:05:36;;;;;;;;;24.25;18.00;;;;;;;;5007164;28;45364;-73
2021/11/16 06:08:02;;;;;;;;;26.50;16.50;;;;;;;;5006207;28;45598;-72
2021/11/16 06:10:27;;;;;;;;;23.75;18.00;;;;;;;;5005344;28;45603;-71
2021/11/16 06:12:52;;;;;;;;;25.33;18.67;;;;;;;;5003782;28;45382;-71
2021/11/16 06:15:17;;;;;;;;;19.00;14.33;;;;;;;;5009834;28;45751;-71
2021/11/16 06:17:44;;;;;;;;;19.00;13.33;;;;;;;;5004232;28;45473;-72
2021/11/16 06:20:10;;;;;;;;;21.25;16.75;;;;;;;;5011209;28;45913;-72
2021/11/16 06:22:35;;;;;;;;;18.75;15.00;;;;;;;;5010848;28;45515;-71
2021/11/16 06:25:01;;;;;;;;;17.50;17.25;;;;;;;;5008674;28;45499;-72
2021/11/16 06:27:26;;;;;;;;;24.00;16.00;;;;;;;;5001400;28;46575;-71
2021/11/16 06:29:51;;;;;;;;;18.00;16.00;;;;;;;;5003619;28;45557;-71
2021/11/16 06:32:16;;;;;;;;;21.67;17.00;;;;;;;;4997245;28;45707;-71
2021/11/16 06:34:41;;;;;;;;;22.67;16.33;;;;;;;;5009644;28;45487;-71
2021/11/16 06:37:07;;;;;;;;;23.67;17.67;;;;;;;;5011418;28;45452;-71
2021/11/16 06:39:32;;;;;;;;;20.75;15.75;;;;;;;;5013582;28;45518;-73
2021/11/16 06:41:59;;;;;;;;;26.50;18.75;;;;;;;;5001389;28;45400;-72
2021/11/16 06:44:24;;;;;;;;;22.25;16.00;;;;;;;;4999297;28;45364;-72
2021/11/16 06:46:51;;;;;;;;;22.33;16.33;;;;;;;;5002468;28;45391;-73
2021/11/16 06:49:16;;;;;;;;;22.00;17.25;;;;;;;;5003532;28;45364;-70
2021/11/16 06:51:43;;;;;;;;;27.75;16.50;;;;;;;;5004263;28;45344;-72
2021/11/16 06:54:21;;;;;;;;;22.75;17.75;;;;;;;;5008194;28;45640;-71
2021/11/16 06:56:48;;;;;;;;;17.25;16.25;;;;;;;;5008023;28;46424;-72
2021/11/16 06:59:15;;;;;;;;;21.75;14.00;;;;;;;;5013655;28;45480;-71
2021/11/16 07:01:40;;;;;;;;;28.25;20.25;;;;;;;;4999805;28;45381;-72
2021/11/16 07:04:09;;;;;;;;;20.67;16.00;;;;;;;;5003308;28;45542;-72
2021/11/16 07:06:36;;;;;;;;;19.75;16.50;;;;;;;;5000394;28;45609;-72
2021/11/16 07:09:01;;;;;;;;;30.25;22.75;;;;;;;;5012024;28;45467;-72
2021/11/16 07:11:27;;;;;;;;;24.75;18.50;;;;;;;;5012113;28;45468;-72
2021/11/16 07:14:11;;;;;;;;;35.75;27.00;;;;;;;;5002240;28;45609;-72
2021/11/16 07:16:41;;;;;;;;;38.50;30.25;;;;;;;;5007606;28;45481;-71
2021/11/16 07:19:08;;;;;;;;;76.00;56.00;;;;;;;;5002883;28;45828;-71
2021/11/16 07:21:47;;;;;;;;;81.00;61.25;;;;;;;;5004848;28;45256;-72
2021/11/16 07:24:15;;;;;;;;;67.75;50.50;;;;;;;;5002538;28;45462;-72
2021/11/16 07:26:41;;;;;;;;;60.75;42.00;;;;;;;;4998762;28;45494;-72
2021/11/16 07:29:11;;;;;;;;;77.50;55.00;;;;;;;;5000745;28;45803;-72
2021/11/16 07:31:40;;;;;;;;;79.50;56.50;;;;;;;;5001055;28;45364;-72
2021/11/16 07:34:13;;;;;;;;;127.00;104.50;;;;;;;;5008165;28;45370;-72
2021/11/16 07:36:39;;;;;;;;;102.50;73.75;;;;;;;;5003111;28;46574;-72
2021/11/16 07:39:05;;;;;;;;;91.33;66.33;;;;;;;;5001316;28;45452;-72
2021/11/16 07:41:30;;;;;;;;;58.75;42.50;;;;;;;;5009585;28;45724;-72
2021/11/16 07:43:55;;;;;;;;;54.00;41.00;;;;;;;;5001707;28;45384;-72
2021/11/16 07:46:21;;;;;;;;;45.33;40.33;;;;;;;;5007006;28;45379;-73
2021/11/16 07:48:46;;;;;;;;;57.67;41.33;;;;;;;;5010782;28;45483;-73
2021/11/16 07:51:13;;;;;;;;;43.00;37.00;;;;;;;;5009968;28;45489;-72
2021/11/16 07:53:40;;;;;;;;;53.25;40.75;;;;;;;;5002110;28;45233;-73
2021/11/16 07:56:06;;;;;;;;;34.50;29.00;;;;;;;;5010276;28;45713;-72
2021/11/16 07:58:40;;;;;;;;;32.25;27.75;;;;;;;;5013002;28;45616;-72
2021/11/16 08:01:11;;;;;;;;;37.50;32.50;;;;;;;;5013400;28;45455;-72
2021/11/16 08:03:44;;;;;;;;;29.50;26.00;;;;;;;;5011480;28;45483;-73
2021/11/16 08:08:54;;;;;;;;;20.00;14.00;;;;;;;;5011675;28;45518;-73
2021/11/16 08:11:29;;;;;;;;;38.75;29.00;;;;;;;;4996796;28;45348;-72
2021/11/16 08:14:05;;;;;;;;;52.50;42.75;;;;;;;;5009604;28;45443;-73
2021/11/16 08:16:32;;;;;;;;;62.50;45.00;;;;;;;;5006980;28;47283;-72
2021/11/16 08:19:08;;;;;;;;;61.50;43.75;;;;;;;;5012009;28;45961;-73
2021/11/16 08:21:35;;;;;;;;;55.25;39.75;;;;;;;;5006614;28;45429;-73
2021/11/16 08:24:04;;;;;;;;;42.75;31.50;;;;;;;;5007383;28;45574;-72
2021/11/16 08:26:37;;;;;;;;;37.25;34.25;;;;;;;;5015300;28;45522;-72
2021/11/16 08:29:03;;;;;;;;;60.75;48.50;;;;;;;;5016234;28;45810;-73
2021/11/16 08:31:34;;;;;;;;;42.50;34.25;;;;;;;;5005199;28;45337;-72
2021/11/16 08:33:59;;;;;;;;;72.00;57.00;;;;;;;;5006939;28;45509;-72
2021/11/16 08:36:27;;;;;;;;;46.50;34.00;;;;;;;;5016745;28;46227;-73
2021/11/16 08:38:54;;;;;;;;;24.75;20.50;;;;;;;;5002331;28;45961;-73
2021/11/16 08:41:28;;;;;;;;;35.00;29.75;;;;;;;;5002101;28;45567;-72
2021/11/16 08:44:05;;;;;;;;;30.00;24.75;;;;;;;;5004438;28;45621;-72
2021/11/16 08:46:32;;;;;;;;;33.25;29.00;;;;;;;;5005847;28;46545;-72
2021/11/16 08:48:57;;;;;;;;;30.25;26.25;;;;;;;;5005859;28;45355;-73
2021/11/16 08:51:23;;;;;;;;;27.00;22.00;;;;;;;;5016486;28;45422;-73
2021/11/16 08:53:48;;;;;;;;;24.67;20.00;;;;;;;;5002052;28;45397;-72
2021/11/16 08:56:15;;;;;;;;;21.33;19.00;;;;;;;;5013556;28;45425;-72
2021/11/16 08:58:41;;;;;;;;;18.75;17.75;;;;;;;;5005409;28;45953;-72
2021/11/16 09:01:07;;;;;;;;;29.00;21.00;;;;;;;;5005965;28;45430;-73
2021/11/16 09:03:39;;;;;;;;;18.25;13.25;;;;;;;;5006015;28;45514;-72
2021/11/16 09:06:14;;;;;;;;;22.25;19.00;;;;;;;;5003587;28;46451;-73
2021/11/16 09:08:39;;;;;;;;;20.00;17.25;;;;;;;;4999916;28;46124;-72
2021/11/16 09:11:18;;;;;;;;;18.25;16.50;;;;;;;;5002328;28;45730;-73
2021/11/16 09:13:44;;;;;;;;;23.00;14.25;;;;;;;;5004390;28;45331;-73
2021/11/16 09:16:11;;;;;;;;;20.25;15.25;;;;;;;;5005273;28;48303;-73
2021/11/16 09:18:47;;;;;;;;;23.50;18.25;;;;;;;;5005459;28;45297;-73
2021/11/16 09:21:17;;;;;;;;;24.00;18.25;;;;;;;;5004577;28;45353;-72
2021/11/16 09:23:47;;;;;;;;;24.50;20.00;;;;;;;;5001189;28;45479;-73
2021/11/16 09:26:17;;;;;;;;;21.00;17.50;;;;;;;;5001589;28;47060;-73
2021/11/16 09:29:09;;;;;;;;;18.00;14.00;;;;;;;;5011847;28;45875;-73
2021/11/16 09:31:35;;;;;;;;;22.00;18.75;;;;;;;;5005105;28;45784;-73
2021/11/16 09:34:04;;;;;;;;;26.75;16.50;;;;;;;;5005219;28;45424;-73
2021/11/16 09:36:37;;;;;;;;;23.25;18.00;;;;;;;;5005207;28;46326;-73
2021/11/16 09:39:10;;;;;;;;;26.00;16.50;;;;;;;;5000414;28;46683;-73
2021/11/16 09:41:38;;;;;;;;;20.75;16.25;;;;;;;;5014006;28;45550;-73
2021/11/16 09:44:08;;;;;;;;;18.00;14.75;;;;;;;;5012950;28;45462;-73
2021/11/16 09:46:46;;;;;;;;;19.50;17.00;;;;;;;;5006116;28;46585;-73
2021/11/16 09:49:13;;;;;;;;;17.50;14.75;;;;;;;;5005070;28;45324;-73
2021/11/16 09:51:39;;;;;;;;;17.75;14.00;;;;;;;;5003199;28;45323;-73
2021/11/16 09:54:05;;;;;;;;;22.75;18.75;;;;;;;;5014846;28;45716;-73
2021/11/16 09:56:32;;;;;;;;;20.00;14.00;;;;;;;;4999880;28;46534;-72
2021/11/16 09:58:57;;;;;;;;;25.00;14.50;;;;;;;;5003338;28;45972;-73
2021/11/16 10:01:32;;;;;;;;;12.50;12.50;;;;;;;;5005038;28;45425;-73
2021/11/16 10:04:07;;;;;;;;;14.50;12.25;;;;;;;;5004764;28;45898;-73
2021/11/16 10:06:33;;;;;;;;;20.50;15.00;;;;;;;;5005133;28;46999;-72
2021/11/16 10:08:58;;;;;;;;;17.50;12.25;;;;;;;;5002062;28;45510;-73
2021/11/16 10:11:23;;;;;;;;;26.25;14.00;;;;;;;;4999928;28;45419;-72
2021/11/16 10:13:48;;;;;;;;;10.33;9.67;;;;;;;;5004349;28;45419;-73
2021/11/16 10:16:14;;;;;;;;;20.67;12.33;;;;;;;;5004494;28;46510;-73
2021/11/16 10:18:41;;;;;;;;;18.00;13.33;;;;;;;;5004835;28;45474;-72
2021/11/16 10:21:07;;;;;;;;;19.00;13.25;;;;;;;;5002372;28;45382;-72
2021/11/16 10:23:35;;;;;;;;;10.25;10.25;;;;;;;;5000132;28;45571;-73
2021/11/16 10:26:03;;;;;;;;;32.50;22.25;;;;;;;;5002320;28;45637;-73
2021/11/16 10:28:30;;;;;;;;;31.75;31.00;;;;;;;;5004484;28;45628;-72
2021/11/16 10:30:58;;;;;;;;;19.25;13.25;;;;;;;;5004887;28;45469;-73
2021/11/16 10:33:31;;;;;;;;;19.75;10.00;;;;;;;;5015199;28;45568;-73
2021/11/16 10:35:59;;;;;;;;;21.75;16.00;;;;;;;;5000968;28;46656;-73
2021/11/16 10:38:26;;;;;;;;;22.50;18.50;;;;;;;;4999359;28;45471;-72
2021/11/16 10:40:53;;;;;;;;;22.75;15.25;;;;;;;;5002479;28;45522;-73
2021/11/16 10:43:19;;;;;;;;;21.75;18.75;;;;;;;;5002737;28;45580;-72
2021/11/16 10:45:46;;;;;;;;;17.50;14.00;;;;;;;;5004106;28;45434;-73
2021/11/16 10:48:14;;;;;;;;;23.50;16.00;;;;;;;;4985555;28;45400;-73
2021/11/16 10:50:40;;;;;;;;;19.25;16.25;;;;;;;;4999553;28;45655;-72
2021/11/16 10:53:09;;;;;;;;;20.00;15.50;;;;;;;;5001079;28;45423;-73
2021/11/16 10:55:47;;;;;;;;;20.25;14.25;;;;;;;;5004059;28;46445;-73
2021/11/16 10:58:16;;;;;;;;;25.25;22.00;;;;;;;;5004080;28;45268;-73
2021/11/16 11:00:42;;;;;;;;;18.25;13.75;;;;;;;;5004531;28;45364;-73
2021/11/16 11:03:24;;;;;;;;;14.33;14.00;;;;;;;;5002233;28;45435;-72
2021/11/16 11:05:50;;;;;;;;;21.00;17.50;;;;;;;;4999641;28;45443;-72
2021/11/16 11:08:33;;;;;;;;;16.75;13.00;;;;;;;;4999778;28;45785;-73
2021/11/16 11:10:59;;;;;;;;;14.00;12.25;;;;;;;;5009402;28;45343;-73
2021/11/16 11:13:26;;;;;;;;;21.00;15.50;;;;;;;;5006404;28;45460;-73
2021/11/16 11:15:52;;;;;;;;;49.25;39.00;;;;;;;;5003593;28;46512;-73
2021/11/16 11:18:37;;;;;;;;;44.00;36.50;;;;;;;;5003759;28;45483;-73
2021/11/16 11:21:04;;;;;;;;;55.00;42.25;;;;;;;;4998033;28;45495;-73
2021/11/16 11:23:40;;;;;;;;;72.00;54.50;;;;;;;;4998404;28;45848;-73
2021/11/16 11:29:19;;;;;;;;;118.50;103.75;;;;;;;;4953896;28;45781;-73
2021/11/16 11:31:47;;;;;;;;;62.75;48.00;;;;;;;;4953652;28;45560;-73
2021/11/16 11:34:12;;;;;;;;;23.00;17.25;;;;;;;;4953682;28;45568;-73
2021/11/16 11:36:38;;;;;;;;;20.67;14.00;;;;;;;;4952866;28;46499;-73
2021/11/16 11:39:13;;;;;;;;;25.25;18.50;;;;;;;;4953540;28;45500;-73
2021/11/16 11:41:53;;;;;;;;;56.75;43.00;;;;;;;;4954044;28;45497;-73
2021/11/16 11:44:19;;;;;;;;;30.50;20.25;;;;;;;;4950678;28;45430;-73
2021/11/16 11:46:53;;;;;;;;;31.25;23.00;;;;;;;;4953401;28;45522;-73
2021/11/16 11:49:19;;;;;;;;;17.50;13.50;;;;;;;;4953342;28;45342;-73
2021/11/16 11:51:44;;;;;;;;;29.00;27.00;;;;;;;;4952185;28;45509;-73
2021/11/16 11:54:10;;;;;;;;;46.25;37.50;;;;;;;;4953003;28;45275;-73
2021/11/16 11:56:36;;;;;;;;;25.00;17.00;;;;;;;;4953204;28;45437;-73
2021/11/16 11:59:02;;;;;;;;;18.50;17.50;;;;;;;;4953495;28;45475;-73
2021/11/16 12:01:28;;;;;;;;;22.25;14.00;;;;;;;;4953757;28;45504;-73
2021/11/16 12:03:55;;;;;;;;;32.50;25.25;;;;;;;;4952880;28;45377;-73
2021/11/16 12:06:20;;;;;;;;;27.00;21.75;;;;;;;;4997385;28;47507;-73
2021/11/16 12:08:46;;;;;;;;;19.67;16.33;;;;;;;;4998129;28;45371;-73
2021/11/16 12:11:12;;;;;;;;;23.50;19.00;;;;;;;;4999802;28;45618;-72
2021/11/16 12:13:38;;;;;;;;;31.25;24.00;;;;;;;;5003207;28;45532;-73
2021/11/16 12:16:05;;;;;;;;;24.50;16.25;;;;;;;;5002653;28;46102;-72
2021/11/16 12:18:35;;;;;;;;;17.00;14.25;;;;;;;;5002771;28;45365;-72
2021/11/16 12:21:00;;;;;;;;;21.75;18.75;;;;;;;;4999192;28;45525;-72
2021/11/16 12:23:41;;;;;;;;;34.67;29.67;;;;;;;;4998156;28;45402;-73
2021/11/16 12:26:08;;;;;;;;;25.25;20.50;;;;;;;;5014051;28;46759;-73
2021/11/16 12:28:33;;;;;;;;;19.75;18.00;;;;;;;;5008101;28;45396;-72
2021/11/16 12:30:59;;;;;;;;;20.67;15.00;;;;;;;;5008803;28;45364;-73
2021/11/16 12:33:45;;;;;;;;;43.50;29.75;;;;;;;;5002571;28;45485;-72
2021/11/16 12:36:11;;;;;;;;;21.25;18.25;;;;;;;;5000821;28;45365;-73
2021/11/16 12:38:37;;;;;;;;;19.00;16.50;;;;;;;;4998321;28;45347;-73
2021/11/16 12:41:21;;;;;;;;;55.00;41.25;;;;;;;;5000452;28;45304;-73
2021/11/16 12:43:47;;;;;;;;;22.00;14.25;;;;;;;;5009631;28;45415;-73
2021/11/16 12:46:16;;;;;;;;;22.25;21.00;;;;;;;;5006425;28;45514;-73
2021/11/16 12:48:47;;;;;;;;;26.75;19.25;;;;;;;;5001911;28;45396;-73
2021/11/16 12:51:17;;;;;;;;;19.50;16.75;;;;;;;;4997811;28;45568;-73
2021/11/16 12:53:51;;;;;;;;;26.25;26.25;;;;;;;;5013370;28;45523;-73
2021/11/16 12:56:17;;;;;;;;;51.50;40.25;;;;;;;;5010604;28;45487;-73
2021/11/16 12:58:49;;;;;;;;;25.50;16.25;;;;;;;;5009046;28;45577;-73
2021/11/16 13:01:33;;;;;;;;;35.00;30.00;;;;;;;;5005119;28;45328;-73
2021/11/16 13:03:59;;;;;;;;;26.00;20.25;;;;;;;;5002658;28;45483;-73
2021/11/16 13:06:24;;;;;;;;;23.00;19.75;;;;;;;;5002258;28;46383;-73
2021/11/16 13:08:50;;;;;;;;;32.00;27.75;;;;;;;;5016791;28;45345;-73
2021/11/16 13:11:35;;;;;;;;;96.25;79.00;;;;;;;;5001591;28;45412;-73
2021/11/16 13:14:01;;;;;;;;;61.25;49.75;;;;;;;;5015690;28;45503;-73
2021/11/16 13:16:26;;;;;;;;;26.00;22.00;;;;;;;;5012374;28;46632;-73
2021/11/16 13:18:55;;;;;;;;;27.67;19.67;;;;;;;;5011809;28;45424;-73
2021/11/16 13:21:22;;;;;;;;;21.25;21.00;;;;;;;;5001880;28;45434;-73
2021/11/16 13:23:52;;;;;;;;;21.00;19.25;;;;;;;;5001262;28;45469;-73
2021/11/16 13:26:17;;;;;;;;;23.50;19.25;;;;;;;;5001022;28;45337;-73
2021/11/16 13:28:54;;;;;;;;;26.00;19.75;;;;;;;;5005555;28;45749;-73
2021/11/16 13:31:19;;;;;;;;;22.00;18.25;;;;;;;;5005435;28;45372;-73
2021/11/16 13:33:47;;;;;;;;;22.75;15.75;;;;;;;;5005009;28;45498;-73
2021/11/16 13:36:16;;;;;;;;;29.75;21.25;;;;;;;;5008539;28;46376;-73
2021/11/16 13:39:00;;;;;;;;;27.50;18.00;;;;;;;;5015985;28;45981;-73
2021/11/16 13:41:44;;;;;;;;;33.25;28.75;;;;;;;;5000732;28;45469;-73
2021/11/16 13:44:18;;;;;;;;;27.50;22.50;;;;;;;;5016671;28;45623;-73
2021/11/16 13:46:45;;;;;;;;;28.00;22.00;;;;;;;;5004665;28;45568;-73
2021/11/16 13:49:17;;;;;;;;;34.25;29.25;;;;;;;;5005082;28;45336;-73
2021/11/16 13:51:42;;;;;;;;;78.25;60.50;;;;;;;;5005126;28;45537;-73
2021/11/16 13:54:08;;;;;;;;;61.67;44.67;;;;;;;;5003606;28;45482;-73
2021/11/16 13:56:33;;;;;;;;;36.67;28.00;;;;;;;;5000100;28;45564;-73
2021/11/16 13:58:59;;;;;;;;;34.67;28.00;;;;;;;;5003546;28;45302;-73
2021/11/16 14:01:28;;;;;;;;;23.25;16.50;;;;;;;;5004481;28;45508;-73
2021/11/16 14:04:06;;;;;;;;;26.00;21.75;;;;;;;;5004434;28;45336;-73
2021/11/16 14:06:31;;;;;;;;;26.25;22.00;;;;;;;;5004671;28;46433;-72
2021/11/16 14:08:57;;;;;;;;;23.00;20.00;;;;;;;;5001528;28;45282;-73
2021/11/16 14:11:22;;;;;;;;;26.67;16.67;;;;;;;;5000722;28;45448;-73
2021/11/16 14:13:47;;;;;;;;;20.75;16.00;;;;;;;;5004186;28;45244;-72
2021/11/16 14:16:15;;;;;;;;;21.33;19.67;;;;;;;;5002966;28;46418;-73
2021/11/16 14:18:41;;;;;;;;;20.25;16.50;;;;;;;;5004529;28;45998;-73
2021/11/16 14:21:13;;;;;;;;;25.75;19.75;;;;;;;;5003036;28;47269;-73
2021/11/16 14:23:40;;;;;;;;;16.50;14.50;;;;;;;;5000022;28;45358;-73
2021/11/16 14:26:07;;;;;;;;;25.25;16.50;;;;;;;;5012011;28;46557;-73
2021/11/16 14:28:33;;;;;;;;;22.50;19.50;;;;;;;;5006057;28;45348;-73
2021/11/16 14:31:07;;;;;;;;;26.75;19.50;;;;;;;;5003781;28;45568;-73
2021/11/16 14:33:37;;;;;;;;;23.25;19.25;;;;;;;;5004781;28;45478;-73
2021/11/16 14:36:03;;;;;;;;;22.50;17.50;;;;;;;;5015345;28;45548;-73
2021/11/16 14:38:29;;;;;;;;;25.00;16.75;;;;;;;;5013340;28;45458;-73
2021/11/16 14:40:56;;;;;;;;;21.25;17.25;;;;;;;;5003055;28;45419;-73